sensor_id;sensor_type;location;lat;lon;timestamp;pressure;altitude;pressure_sealevel;temperature;humidity
75553;BME280;64136;53.118;17.996;2023-04-03T00:00:11;102105.38;;;0.55;68.07
75553;BME280;64136;53.118;17.996;2023-04-03T00:02:37;102108.14;;;0.43;68.63
75553;BME280;64136;53.118;17.996;2023-04-03T00:05:04;102105.02;;;0.48;68.31
75553;BME280;64136;53.118;17.996;2023-04-03T00:07:30;102107.80;;;0.41;68.67
75553;BME280;64136;53.118;17.996;2023-04-03T00:09:56;102104.30;;;0.33;68.64
75553;BME280;64136;53.118;17.996;2023-04-03T00:12:23;102106.22;;;0.33;68.82
75553;BME280;64136;53.118;17.996;2023-04-03T00:14:49;102103.08;;;0.30;69.06
75553;BME280;64136;53.118;17.996;2023-04-03T00:17:15;102101.68;;;0.31;68.74
75553;BME280;64136;53.118;17.996;2023-04-03T00:19:41;102103.25;;;0.32;68.49
75553;BME280;64136;53.118;17.996;2023-04-03T00:22:08;102100.81;;;0.26;68.73
75553;BME280;64136;53.118;17.996;2023-04-03T00:24:34;102100.81;;;0.28;68.63
75553;BME280;64136;53.118;17.996;2023-04-03T00:27:00;102097.33;;;0.28;68.78
75553;BME280;64136;53.118;17.996;2023-04-03T00:29:26;102099.59;;;0.30;68.68
75553;BME280;64136;53.118;17.996;2023-04-03T00:31:53;102098.73;;;0.29;68.51
75553;BME280;64136;53.118;17.996;2023-04-03T00:34:19;102101.16;;;0.28;68.72
75553;BME280;64136;53.118;17.996;2023-04-03T00:36:45;102098.02;;;0.23;69.06
75553;BME280;64136;53.118;17.996;2023-04-03T00:39:12;102100.98;;;0.24;69.19
75553;BME280;64136;53.118;17.996;2023-04-03T00:41:38;102100.96;;;0.19;69.41
75553;BME280;64136;53.118;17.996;2023-04-03T00:44:20;102097.81;;;0.19;69.19
75553;BME280;64136;53.118;17.996;2023-04-03T00:46:48;102102.00;;;0.19;69.43
75553;BME280;64136;53.118;17.996;2023-04-03T00:49:14;102098.16;;;0.17;69.31
75553;BME280;64136;53.118;17.996;2023-04-03T00:51:40;102104.78;;;0.14;69.55
75553;BME280;64136;53.118;17.996;2023-04-03T00:54:07;102103.39;;;0.13;69.62
75553;BME280;64136;53.118;17.996;2023-04-03T00:59:04;102104.77;;;0.08;69.83
75553;BME280;64136;53.118;17.996;2023-04-03T01:01:32;102106.69;;;0.06;70.11
75553;BME280;64136;53.118;17.996;2023-04-03T01:03:59;102101.98;;;0.06;70.00
75553;BME280;64136;53.118;17.996;2023-04-03T01:06:29;102101.79;;;0.00;70.19
75553;BME280;64136;53.118;17.996;2023-04-03T01:09:04;102103.52;;;-0.01;70.23
75553;BME280;64136;53.118;17.996;2023-04-03T01:11:31;102100.92;;;-0.01;70.07
75553;BME280;64136;53.118;17.996;2023-04-03T01:13:57;102105.27;;;-0.01;70.01
75553;BME280;64136;53.118;17.996;2023-04-03T01:16:24;102106.48;;;-0.00;69.96
75553;BME280;64136;53.118;17.996;2023-04-03T01:18:50;102104.38;;;-0.04;70.15
75553;BME280;64136;53.118;17.996;2023-04-03T01:24:14;102109.42;;;-0.08;70.53
75553;BME280;64136;53.118;17.996;2023-04-03T01:26:44;102111.15;;;-0.14;70.77
75553;BME280;64136;53.118;17.996;2023-04-03T01:29:10;102113.94;;;-0.15;70.95
75553;BME280;64136;53.118;17.996;2023-04-03T01:31:45;102116.20;;;-0.13;70.85
75553;BME280;64136;53.118;17.996;2023-04-03T01:34:12;102113.58;;;-0.16;70.88
75553;BME280;64136;53.118;17.996;2023-04-03T01:36:38;102118.98;;;-0.18;71.20
75553;BME280;64136;53.118;17.996;2023-04-03T01:39:04;102119.67;;;-0.18;71.22
75553;BME280;64136;53.118;17.996;2023-04-03T01:41:31;102120.36;;;-0.18;71.22
75553;BME280;64136;53.118;17.996;2023-04-03T01:44:04;102122.30;;;-0.09;71.05
75553;BME280;64136;53.118;17.996;2023-04-03T01:46:31;102119.67;;;-0.16;71.28
75553;BME280;64136;53.118;17.996;2023-04-03T01:48:57;102120.20;;;-0.12;71.13
75553;BME280;64136;53.118;17.996;2023-04-03T01:51:24;102119.69;;;-0.12;71.10
75553;BME280;64136;53.118;17.996;2023-04-03T01:53:50;102121.07;;;-0.17;71.54
75553;BME280;64136;53.118;17.996;2023-04-03T01:56:17;102124.05;;;-0.12;71.29
75553;BME280;64136;53.118;17.996;2023-04-03T01:58:45;102125.25;;;-0.15;71.45
75553;BME280;64136;53.118;17.996;2023-04-03T02:01:11;102122.63;;;-0.18;71.46
75553;BME280;64136;53.118;17.996;2023-04-03T02:03:37;102125.06;;;-0.19;71.45
75553;BME280;64136;53.118;17.996;2023-04-03T02:06:04;102125.92;;;-0.21;71.64
75553;BME280;64136;53.118;17.996;2023-04-03T02:08:30;102124.67;;;-0.25;71.87
75553;BME280;64136;53.118;17.996;2023-04-03T02:10:57;102122.05;;;-0.31;71.99
75553;BME280;64136;53.118;17.996;2023-04-03T02:13:23;102123.44;;;-0.33;72.10
75553;BME280;64136;53.118;17.996;2023-04-03T02:15:49;102127.63;;;-0.27;71.75
75553;BME280;64136;53.118;17.996;2023-04-03T02:18:16;102127.29;;;-0.26;71.74
75553;BME280;64136;53.118;17.996;2023-04-03T02:20:43;102126.59;;;-0.28;71.88
75553;BME280;64136;53.118;17.996;2023-04-03T02:23:09;102127.47;;;-0.23;71.60
75553;BME280;64136;53.118;17.996;2023-04-03T02:25:36;102127.10;;;-0.27;72.08
75553;BME280;64136;53.118;17.996;2023-04-03T02:28:02;102127.96;;;-0.31;71.98
75553;BME280;64136;53.118;17.996;2023-04-03T02:30:28;102127.27;;;-0.31;72.01
75553;BME280;64136;53.118;17.996;2023-04-03T02:32:54;102131.27;;;-0.29;72.15
75553;BME280;64136;53.118;17.996;2023-04-03T02:35:22;102131.26;;;-0.34;72.11
75553;BME280;64136;53.118;17.996;2023-04-03T02:37:48;102133.16;;;-0.36;72.41
75553;BME280;64136;53.118;17.996;2023-04-03T02:40:15;102137.00;;;-0.35;72.37
75553;BME280;64136;53.118;17.996;2023-04-03T02:42:42;102146.05;;;-0.36;72.32
75553;BME280;64136;53.118;17.996;2023-04-03T02:47:34;102147.61;;;-0.36;72.54
75553;BME280;64136;53.118;17.996;2023-04-03T02:50:01;102148.33;;;-0.31;72.30
75553;BME280;64136;53.118;17.996;2023-04-03T02:52:27;102147.79;;;-0.34;72.61
75553;BME280;64136;53.118;17.996;2023-04-03T02:54:55;102150.40;;;-0.35;72.40
75553;BME280;64136;53.118;17.996;2023-04-03T02:57:32;102150.93;;;-0.33;72.50
75553;BME280;64136;53.118;17.996;2023-04-03T02:59:59;102156.67;;;-0.33;72.39
75553;BME280;64136;53.118;17.996;2023-04-03T03:02:25;102153.70;;;-0.38;72.53
75553;BME280;64136;53.118;17.996;2023-04-03T03:04:51;102151.09;;;-0.39;72.76
75553;BME280;64136;53.118;17.996;2023-04-03T03:07:18;102155.27;;;-0.39;72.71
75553;BME280;64136;53.118;17.996;2023-04-03T03:09:44;102158.35;;;-0.45;72.98
75553;BME280;64136;53.118;17.996;2023-04-03T03:12:10;102159.42;;;-0.42;72.59
75553;BME280;64136;53.118;17.996;2023-04-03T03:14:36;102160.13;;;-0.40;72.66
75553;BME280;64136;53.118;17.996;2023-04-03T03:17:02;102161.48;;;-0.45;73.08
75553;BME280;64136;53.118;17.996;2023-04-03T03:19:29;102163.73;;;-0.47;73.03
75553;BME280;64136;53.118;17.996;2023-04-03T03:21:55;102163.73;;;-0.50;73.02
75553;BME280;64136;53.118;17.996;2023-04-03T03:24:22;102164.23;;;-0.53;73.23
75553;BME280;64136;53.118;17.996;2023-04-03T03:26:49;102164.25;;;-0.49;73.05
75553;BME280;64136;53.118;17.996;2023-04-03T03:29:15;102162.13;;;-0.55;73.13
75553;BME280;64136;53.118;17.996;2023-04-03T03:31:41;102164.91;;;-0.55;73.23
75553;BME280;64136;53.118;17.996;2023-04-03T03:34:08;102164.38;;;-0.58;73.35
75553;BME280;64136;53.118;17.996;2023-04-03T03:36:34;102166.98;;;-0.57;73.11
75553;BME280;64136;53.118;17.996;2023-04-03T03:39:00;102169.59;;;-0.59;73.23
75553;BME280;64136;53.118;17.996;2023-04-03T03:41:26;102174.80;;;-0.61;73.45
75553;BME280;64136;53.118;17.996;2023-04-03T03:43:53;102172.70;;;-0.61;73.47
75553;BME280;64136;53.118;17.996;2023-04-03T03:46:19;102178.27;;;-0.64;73.37
75553;BME280;64136;53.118;17.996;2023-04-03T03:48:46;102179.96;;;-0.67;73.65
75553;BME280;64136;53.118;17.996;2023-04-03T03:51:12;102182.41;;;-0.66;73.55
75553;BME280;64136;53.118;17.996;2023-04-03T03:53:38;102183.45;;;-0.67;73.57
75553;BME280;64136;53.118;17.996;2023-04-03T03:56:07;102185.02;;;-0.67;73.67
75553;BME280;64136;53.118;17.996;2023-04-03T03:58:34;102186.38;;;-0.70;73.64
75553;BME280;64136;53.118;17.996;2023-04-03T04:01:06;102187.91;;;-0.74;73.93
75553;BME280;64136;53.118;17.996;2023-04-03T04:05:59;102193.13;;;-0.75;73.79
75553;BME280;64136;53.118;17.996;2023-04-03T04:08:25;102194.85;;;-0.78;74.03
75553;BME280;64136;53.118;17.996;2023-04-03T04:10:51;102197.63;;;-0.78;74.06
75553;BME280;64136;53.118;17.996;2023-04-03T04:13:18;102202.33;;;-0.79;74.11
75553;BME280;64136;53.118;17.996;2023-04-03T04:15:45;102200.59;;;-0.78;74.02
75553;BME280;64136;53.118;17.996;2023-04-03T04:18:11;102203.91;;;-0.76;73.91
75553;BME280;64136;53.118;17.996;2023-04-03T04:20:40;102204.25;;;-0.77;73.96
75553;BME280;64136;53.118;17.996;2023-04-03T04:23:07;102209.98;;;-0.76;73.86
75553;BME280;64136;53.118;17.996;2023-04-03T04:25:34;102213.48;;;-0.75;73.82
75553;BME280;64136;53.118;17.996;2023-04-03T04:28:00;102212.82;;;-0.70;73.78
75553;BME280;64136;53.118;17.996;2023-04-03T04:30:26;102210.19;;;-0.73;73.71
75553;BME280;64136;53.118;17.996;2023-04-03T04:32:54;102209.17;;;-0.70;73.73
75553;BME280;64136;53.118;17.996;2023-04-03T04:35:20;102212.64;;;-0.70;73.70
75553;BME280;64136;53.118;17.996;2023-04-03T04:37:48;102212.35;;;-0.66;73.59
75553;BME280;64136;53.118;17.996;2023-04-03T04:40:14;102213.07;;;-0.62;73.24
75553;BME280;64136;53.118;17.996;2023-04-03T04:42:41;102212.20;;;-0.63;73.37
75553;BME280;64136;53.118;17.996;2023-04-03T04:45:08;102210.94;;;-0.68;73.49
75553;BME280;64136;53.118;17.996;2023-04-03T04:47:34;102215.69;;;-0.61;73.07
75553;BME280;64136;53.118;17.996;2023-04-03T04:50:01;102216.17;;;-0.64;73.20
75553;BME280;64136;53.118;17.996;2023-04-03T04:52:27;102222.47;;;-0.62;73.09
75553;BME280;64136;53.118;17.996;2023-04-03T04:54:54;102221.44;;;-0.58;72.90
75553;BME280;64136;53.118;17.996;2023-04-03T04:57:20;102227.02;;;-0.56;72.88
75553;BME280;64136;53.118;17.996;2023-04-03T04:59:47;102229.99;;;-0.56;72.85
75553;BME280;64136;53.118;17.996;2023-04-03T05:02:13;102233.99;;;-0.54;72.57
75553;BME280;64136;53.118;17.996;2023-04-03T05:04:40;102235.09;;;-0.47;72.13
75553;BME280;64136;53.118;17.996;2023-04-03T05:07:11;102236.27;;;-0.27;71.68
75553;BME280;64136;53.118;17.996;2023-04-03T05:09:37;102234.24;;;-0.16;71.21
75553;BME280;64136;53.118;17.996;2023-04-03T05:12:04;102237.89;;;-0.18;71.17
75553;BME280;64136;53.118;17.996;2023-04-03T05:14:35;102240.18;;;-0.14;70.89
75553;BME280;64136;53.118;17.996;2023-04-03T05:17:04;102241.92;;;-0.13;70.50
75553;BME280;64136;53.118;17.996;2023-04-03T05:19:32;102244.00;;;-0.17;70.62
75553;BME280;64136;53.118;17.996;2023-04-03T05:21:59;102244.86;;;-0.19;70.70
75553;BME280;64136;53.118;17.996;2023-04-03T05:24:25;102245.21;;;-0.17;70.71
75553;BME280;64136;53.118;17.996;2023-04-03T05:26:52;102242.08;;;-0.17;70.38
75553;BME280;64136;53.118;17.996;2023-04-03T05:29:18;102241.38;;;-0.17;69.96
75553;BME280;64136;53.118;17.996;2023-04-03T05:31:45;102238.95;;;-0.16;69.97
75553;BME280;64136;53.118;17.996;2023-04-03T05:34:12;102240.58;;;-0.04;69.63
75553;BME280;64136;53.118;17.996;2023-04-03T05:36:39;102241.80;;;-0.03;69.49
75553;BME280;64136;53.118;17.996;2023-04-03T05:39:07;102238.36;;;0.04;68.88
75553;BME280;64136;53.118;17.996;2023-04-03T05:41:35;102239.44;;;0.11;68.79
75553;BME280;64136;53.118;17.996;2023-04-03T05:44:02;102239.15;;;0.24;68.40
75553;BME280;64136;53.118;17.996;2023-04-03T05:46:28;102236.73;;;0.27;67.82
75553;BME280;64136;53.118;17.996;2023-04-03T05:49:06;102238.48;;;0.33;67.40
75553;BME280;64136;53.118;17.996;2023-04-03T05:51:37;102237.10;;;0.38;66.82
75553;BME280;64136;53.118;17.996;2023-04-03T05:54:28;102240.11;;;0.48;66.30
75553;BME280;64136;53.118;17.996;2023-04-03T05:56:58;102237.18;;;0.64;66.07
75553;BME280;64136;53.118;17.996;2023-04-03T05:59:30;102238.06;;;0.66;65.42
75553;BME280;64136;53.118;17.996;2023-04-03T06:01:58;102242.10;;;0.80;65.36
75553;BME280;64136;53.118;17.996;2023-04-03T06:04:24;102244.40;;;0.94;64.33
75553;BME280;64136;53.118;17.996;2023-04-03T06:06:53;102243.55;;;1.14;64.17
75553;BME280;64136;53.118;17.996;2023-04-03T06:09:25;102244.42;;;1.27;63.47
75553;BME280;64136;53.118;17.996;2023-04-03T06:12:12;102245.80;;;1.46;62.49
75553;BME280;64136;53.118;17.996;2023-04-03T06:14:38;102245.95;;;1.67;62.07
